createdAt,value
2022-10-22T00:00:14.751Z,52.62
2022-10-22T00:02:43.078Z,52.42
2022-10-22T00:05:10.898Z,51.91
2022-10-22T00:07:38.641Z,52.30
2022-10-22T00:10:07.657Z,52.61
2022-10-22T00:12:35.082Z,52.45
2022-10-22T00:15:03.301Z,51.96
2022-10-22T00:17:30.846Z,52.13
2022-10-22T00:19:58.106Z,52.30
2022-10-22T00:22:25.372Z,52.12
2022-10-22T00:24:52.922Z,52.51
2022-10-22T00:27:20.211Z,52.37
2022-10-22T00:29:47.999Z,52.17
2022-10-22T00:32:15.613Z,52.38
2022-10-22T00:34:42.975Z,52.40
2022-10-22T00:37:10.262Z,52.21
2022-10-22T00:39:38.004Z,52.41
2022-10-22T00:42:05.336Z,52.61
2022-10-22T00:44:58.416Z,52.51
2022-10-22T00:47:28.624Z,52.74
2022-10-22T00:49:56.341Z,52.79
2022-10-22T00:52:23.755Z,52.62
2022-10-22T00:54:52.043Z,52.49
2022-10-22T00:57:20.368Z,52.79
2022-10-22T00:59:48.280Z,53.31
2022-10-22T01:02:16.221Z,53.55
2022-10-22T01:04:43.577Z,53.52
2022-10-22T01:07:18.182Z,53.48
2022-10-22T01:10:04.300Z,53.85
2022-10-22T01:12:42.078Z,53.52
2022-10-22T01:16:11.776Z,53.96
2022-10-22T01:18:58.293Z,53.78
2022-10-22T01:21:34.747Z,53.56
2022-10-22T01:24:12.012Z,53.97
2022-10-22T01:26:57.437Z,53.93
2022-10-22T01:29:26.366Z,53.94
2022-10-22T01:32:00.723Z,53.85
2022-10-22T01:34:29.302Z,54.00
2022-10-22T01:36:57.885Z,53.83
2022-10-22T01:39:27.311Z,53.21
2022-10-22T01:41:56.196Z,53.43
2022-10-22T01:44:27.934Z,53.19
2022-10-22T01:47:30.464Z,53.14
2022-10-22T01:50:17.051Z,52.85
2022-10-22T01:52:54.694Z,52.95
2022-10-22T01:55:30.323Z,52.82
2022-10-22T01:58:07.624Z,52.93
2022-10-22T02:00:38.119Z,52.84
2022-10-22T02:03:22.777Z,53.51
2022-10-22T02:06:04.414Z,53.40
2022-10-22T02:08:33.766Z,52.31
2022-10-22T02:11:01.521Z,52.34
2022-10-22T02:13:36.805Z,52.75
2022-10-22T02:16:07.112Z,52.23
2022-10-22T02:18:38.768Z,53.10
2022-10-22T02:23:39.287Z,53.29
2022-10-22T02:26:31.663Z,53.28
2022-10-22T02:29:22.262Z,53.37
2022-10-22T02:31:51.073Z,53.25
2022-10-22T02:34:22.542Z,53.36
2022-10-22T02:36:50.703Z,53.99
2022-10-22T02:39:19.234Z,54.12
2022-10-22T02:41:46.556Z,53.89
2022-10-22T02:44:14.454Z,53.87
2022-10-22T02:46:43.071Z,53.95
2022-10-22T02:49:10.359Z,54.21
2022-10-22T02:51:37.927Z,54.34
2022-10-22T02:54:05.568Z,54.39
2022-10-22T02:56:32.975Z,54.28
2022-10-22T02:59:00.511Z,54.42
2022-10-22T03:01:27.794Z,54.53
2022-10-22T03:03:55.084Z,54.24
2022-10-22T03:06:22.691Z,53.90
2022-10-22T03:08:50.153Z,54.12
2022-10-22T03:11:17.504Z,54.47
2022-10-22T03:13:45.047Z,54.64
2022-10-22T03:16:12.383Z,54.59
2022-10-22T03:18:39.659Z,54.45
2022-10-22T03:21:13.961Z,54.85
2022-10-22T03:23:42.103Z,54.80
2022-10-22T03:26:10.759Z,54.83
2022-10-22T03:28:39.984Z,54.81
2022-10-22T03:31:07.335Z,55.00
2022-10-22T03:33:34.912Z,55.62
2022-10-22T03:36:02.508Z,55.81
2022-10-22T03:38:30.067Z,55.42
2022-10-22T03:40:57.713Z,55.40
2022-10-22T03:43:25.104Z,55.84
2022-10-22T03:45:52.449Z,55.61
2022-10-22T03:48:20.126Z,55.26
2022-10-22T03:50:47.418Z,55.55
2022-10-22T03:53:14.694Z,55.77
2022-10-22T03:55:42.380Z,56.37
2022-10-22T03:58:09.716Z,56.06
2022-10-22T04:00:37.080Z,55.80
2022-10-22T04:03:04.636Z,55.94
2022-10-22T04:05:34.843Z,56.46
2022-10-22T04:08:02.125Z,56.33
2022-10-22T04:10:29.750Z,56.28
2022-10-22T04:12:57.047Z,56.34
2022-10-22T04:15:26.800Z,56.68
2022-10-22T04:17:54.752Z,56.61
2022-10-22T04:20:22.038Z,56.80
2022-10-22T04:22:49.379Z,56.69
2022-10-22T04:25:16.926Z,56.83
2022-10-22T04:27:44.235Z,57.19
2022-10-22T04:30:12.061Z,57.00
2022-10-22T04:32:39.620Z,56.88
2022-10-22T04:35:07.339Z,56.70
2022-10-22T04:37:34.664Z,56.84
2022-10-22T04:40:02.222Z,56.72
2022-10-22T04:42:29.535Z,56.83
2022-10-22T04:44:56.859Z,56.77
2022-10-22T04:47:24.523Z,56.47
2022-10-22T04:49:51.832Z,57.10
2022-10-22T04:52:19.171Z,57.10
2022-10-22T04:54:46.955Z,56.84
2022-10-22T04:57:14.514Z,56.71
2022-10-22T04:59:41.845Z,56.97
2022-10-22T05:02:09.406Z,56.52
2022-10-22T05:04:36.690Z,56.50
2022-10-22T05:07:03.963Z,57.14
2022-10-22T05:09:31.512Z,57.19
2022-10-22T05:11:58.827Z,56.77
2022-10-22T05:14:26.208Z,56.78
2022-10-22T05:16:54.194Z,56.74
2022-10-22T05:19:24.350Z,56.53
2022-10-22T05:21:53.038Z,56.68
2022-10-22T05:24:20.987Z,56.94
2022-10-22T05:26:52.426Z,57.08
2022-10-22T05:29:20.372Z,57.03
2022-10-22T05:31:47.920Z,57.12
2022-10-22T05:34:15.498Z,56.99
2022-10-22T05:36:42.974Z,56.78
2022-10-22T05:39:10.576Z,56.87
2022-10-22T05:41:37.879Z,57.18
2022-10-22T05:44:05.512Z,57.14
2022-10-22T05:46:35.236Z,57.10
2022-10-22T05:49:05.109Z,57.30
2022-10-22T05:51:34.918Z,57.73
2022-10-22T05:54:04.250Z,57.37
2022-10-22T05:56:32.292Z,57.56
2022-10-22T05:59:00.616Z,57.26
2022-10-22T06:01:29.844Z,57.48
2022-10-22T06:03:59.940Z,57.41
2022-10-22T06:06:36.815Z,56.85
2022-10-22T06:09:10.396Z,56.97
2022-10-22T06:11:37.971Z,57.54
2022-10-22T06:14:05.532Z,57.80
2022-10-22T06:16:32.952Z,57.53
2022-10-22T06:19:03.610Z,57.06
2022-10-22T06:21:31.561Z,57.30
2022-10-22T06:24:00.231Z,57.40
2022-10-22T06:26:27.930Z,57.12
2022-10-22T06:28:56.722Z,56.89
2022-10-22T06:31:25.587Z,56.35
2022-10-22T06:33:52.954Z,56.23
2022-10-22T06:36:23.368Z,56.25
2022-10-22T06:38:54.825Z,55.90
2022-10-22T06:41:25.781Z,55.67
2022-10-22T06:43:57.523Z,56.11
2022-10-22T06:46:26.149Z,55.89
2022-10-22T06:48:59.363Z,55.72
2022-10-22T06:51:28.025Z,55.32
2022-10-22T06:53:56.226Z,53.89
2022-10-22T06:56:25.833Z,54.04
2022-10-22T06:58:54.948Z,54.14
2022-10-22T07:01:28.699Z,52.94
2022-10-22T07:03:56.712Z,52.83
2022-10-22T07:06:25.675Z,52.06
2022-10-22T07:08:54.872Z,51.96
2022-10-22T07:11:25.486Z,52.23
2022-10-22T07:13:55.780Z,52.00
2022-10-22T07:16:28.044Z,50.08
2022-10-22T07:18:58.561Z,50.23
2022-10-22T07:21:26.184Z,50.28
2022-10-22T07:23:53.562Z,50.11
2022-10-22T07:26:20.952Z,51.53
2022-10-22T07:28:48.639Z,50.80
2022-10-22T07:31:16.720Z,50.34
2022-10-22T07:33:44.280Z,50.78
2022-10-22T07:36:17.480Z,50.41
2022-10-22T07:38:49.538Z,49.56
2022-10-22T07:41:17.281Z,47.11
2022-10-22T07:43:44.875Z,47.38
2022-10-22T07:46:12.232Z,47.03
2022-10-22T07:48:39.835Z,46.30
2022-10-22T07:51:07.206Z,45.57
2022-10-22T07:53:35.021Z,44.73
2022-10-22T07:56:02.570Z,44.49
2022-10-22T07:58:30.046Z,44.98
2022-10-22T08:01:00.720Z,44.07
2022-10-22T08:03:29.120Z,43.81
2022-10-22T08:05:56.448Z,43.49
2022-10-22T08:08:27.076Z,43.76
2022-10-22T08:10:58.960Z,43.19
2022-10-22T08:13:27.402Z,42.53
2022-10-22T08:15:57.377Z,43.67
2022-10-22T08:18:25.893Z,43.69
2022-10-22T08:20:53.402Z,43.43
2022-10-22T08:23:24.476Z,42.92
2022-10-22T08:25:57.193Z,42.95
2022-10-22T08:28:24.760Z,42.26
2022-10-22T08:30:52.043Z,42.54
2022-10-22T08:33:19.673Z,41.86
2022-10-22T08:35:51.568Z,41.71
2022-10-22T08:38:19.259Z,42.39
2022-10-22T08:40:50.297Z,42.48
2022-10-22T08:43:36.536Z,42.72
2022-10-22T08:46:17.012Z,43.31
2022-10-22T08:48:56.033Z,43.02
2022-10-22T08:51:26.602Z,42.81
2022-10-22T08:54:13.735Z,43.89
2022-10-22T08:56:44.560Z,43.88
2022-10-22T08:59:27.336Z,44.16
2022-10-22T09:01:54.896Z,44.20
2022-10-22T09:04:36.753Z,43.74
2022-10-22T09:07:04.355Z,43.87
2022-10-22T09:09:35.161Z,43.76
2022-10-22T09:12:04.285Z,43.06
2022-10-22T09:14:32.306Z,43.72
2022-10-22T09:17:21.714Z,44.00
2022-10-22T09:20:09.116Z,43.92
2022-10-22T09:23:00.861Z,45.51
2022-10-22T09:25:33.011Z,44.14
2022-10-22T09:28:00.294Z,43.59
2022-10-22T09:30:31.663Z,44.23
2022-10-22T09:33:09.488Z,43.71
2022-10-22T09:35:45.359Z,43.20
2022-10-22T09:38:15.304Z,44.02
2022-10-22T09:40:44.331Z,44.32
2022-10-22T09:43:13.825Z,44.14
2022-10-22T09:45:42.538Z,44.36
2022-10-22T09:48:12.135Z,44.75
2022-10-22T09:50:48.097Z,44.41
2022-10-22T09:53:22.866Z,44.01
2022-10-22T09:55:52.997Z,44.70
2022-10-22T09:58:20.988Z,44.39
2022-10-22T10:00:56.624Z,44.77
2022-10-22T10:03:26.598Z,43.92
2022-10-22T10:05:58.072Z,44.67
2022-10-22T10:08:27.614Z,44.46
2022-10-22T10:11:04.019Z,43.80
2022-10-22T10:13:43.761Z,43.71
2022-10-22T10:16:24.180Z,44.67
2022-10-22T10:18:51.610Z,43.80
2022-10-22T10:21:21.729Z,44.41
2022-10-22T10:24:05.848Z,44.21
2022-10-22T10:26:56.407Z,44.26
2022-10-22T10:29:46.143Z,44.10
2022-10-22T10:32:26.065Z,43.91
2022-10-22T10:35:11.413Z,43.72
2022-10-22T10:37:46.391Z,44.10
2022-10-22T10:40:33.352Z,44.38
2022-10-22T10:43:09.802Z,44.38
2022-10-22T10:45:58.324Z,44.77
2022-10-22T10:48:35.060Z,44.76
2022-10-22T10:51:46.257Z,44.56
2022-10-22T10:54:19.298Z,44.31
2022-10-22T10:56:58.568Z,44.63
2022-10-22T10:59:39.211Z,44.60
2022-10-22T11:02:31.597Z,44.05
2022-10-22T11:05:03.546Z,43.99
2022-10-22T11:07:56.153Z,44.78
2022-10-22T11:10:37.343Z,44.99
2022-10-22T11:13:29.494Z,44.86
2022-10-22T11:16:27.348Z,45.16
2022-10-22T11:18:59.892Z,45.23
2022-10-22T11:21:41.961Z,45.30
2022-10-22T11:24:28.627Z,45.68
2022-10-22T11:27:19.383Z,45.88
2022-10-22T11:29:52.536Z,45.11
2022-10-22T11:32:21.331Z,45.14
2022-10-22T11:34:50.968Z,45.12
2022-10-22T11:37:18.728Z,44.96
2022-10-22T11:39:53.706Z,44.92
2022-10-22T11:42:34.468Z,44.75
2022-10-22T11:45:04.529Z,44.57
2022-10-22T11:47:42.826Z,44.12
2022-10-22T11:50:22.791Z,44.68
2022-10-22T11:53:05.475Z,44.51
2022-10-22T11:55:34.520Z,44.98
2022-10-22T11:58:06.772Z,45.38
2022-10-22T12:00:54.544Z,45.55
2022-10-22T12:03:40.908Z,44.93
2022-10-22T12:06:15.637Z,45.31
2022-10-22T12:08:49.320Z,45.38
2022-10-22T12:11:24.224Z,45.54
2022-10-22T12:13:52.523Z,45.64
2022-10-22T12:16:32.202Z,45.72
2022-10-22T12:19:10.296Z,45.95
2022-10-22T12:21:39.181Z,46.68
2022-10-22T12:24:07.033Z,45.71
2022-10-22T12:26:34.895Z,46.21
2022-10-22T12:29:05.956Z,46.19
2022-10-22T12:31:38.359Z,46.53
2022-10-22T12:34:06.360Z,46.82
2022-10-22T12:36:35.763Z,47.09
2022-10-22T12:39:09.016Z,47.05
2022-10-22T12:41:38.381Z,47.37
2022-10-22T12:44:06.011Z,48.04
2022-10-22T12:46:35.051Z,48.18
2022-10-22T12:49:05.415Z,48.13
2022-10-22T12:51:33.156Z,48.27
2022-10-22T12:54:08.488Z,48.49
2022-10-22T12:56:37.302Z,48.27
2022-10-22T12:59:16.796Z,48.67
2022-10-22T13:01:44.528Z,48.89
2022-10-22T13:04:33.427Z,49.05
2022-10-22T13:07:15.957Z,49.06
2022-10-22T13:10:01.045Z,49.51
2022-10-22T13:12:35.510Z,49.47
2022-10-22T13:15:21.058Z,49.69
2022-10-22T13:17:49.772Z,49.43
2022-10-22T13:20:22.156Z,49.52
2022-10-22T13:23:00.931Z,50.11
2022-10-22T13:25:35.538Z,49.71
2022-10-22T13:28:18.347Z,50.48
2022-10-22T13:30:54.295Z,50.95
2022-10-22T13:33:26.393Z,50.87
2022-10-22T13:35:55.774Z,51.21
2022-10-22T13:38:25.239Z,50.86
2022-10-22T13:40:52.577Z,51.34
2022-10-22T13:43:20.448Z,51.34
2022-10-22T13:45:49.251Z,51.65
2022-10-22T13:48:19.146Z,51.65
2022-10-22T13:50:46.691Z,52.12
2022-10-22T13:53:25.682Z,52.17
2022-10-22T13:55:53.383Z,52.70
2022-10-22T13:58:24.626Z,52.08
2022-10-22T14:00:55.756Z,52.58
2022-10-22T14:03:30.425Z,53.07
2022-10-22T14:05:57.828Z,53.85
2022-10-22T14:08:26.526Z,54.19
2022-10-22T14:10:54.204Z,54.34
2022-10-22T14:13:21.542Z,54.60
2022-10-22T14:15:50.778Z,54.20
2022-10-22T14:18:25.574Z,54.22
2022-10-22T14:20:58.395Z,54.29
2022-10-22T14:23:28.702Z,55.05
2022-10-22T14:25:56.822Z,54.48
2022-10-22T14:28:24.159Z,54.41
2022-10-22T14:30:52.400Z,54.18
2022-10-22T14:33:28.807Z,53.59
2022-10-22T14:36:02.282Z,53.99
2022-10-22T14:38:29.802Z,54.53
2022-10-22T14:40:57.652Z,52.36
2022-10-22T14:43:31.007Z,54.01
2022-10-22T14:45:58.579Z,53.91
2022-10-22T14:48:25.881Z,53.67
2022-10-22T14:50:54.548Z,53.30
2022-10-22T14:53:22.118Z,53.35
2022-10-22T14:55:51.435Z,53.77
2022-10-22T14:58:18.781Z,53.77
2022-10-22T15:00:46.379Z,53.57
2022-10-22T15:03:13.771Z,53.90
2022-10-22T15:05:44.290Z,53.88
2022-10-22T15:08:14.177Z,54.36
2022-10-22T15:10:41.814Z,54.68
2022-10-22T15:13:09.479Z,55.24
2022-10-22T15:15:40.267Z,54.53
2022-10-22T15:18:07.655Z,54.77
2022-10-22T15:20:34.955Z,55.18
2022-10-22T15:23:02.602Z,55.21
2022-10-22T15:25:29.922Z,54.72
2022-10-22T15:28:01.808Z,55.44
2022-10-22T15:30:32.405Z,56.15
2022-10-22T15:32:59.695Z,55.82
2022-10-22T15:35:28.542Z,56.30
2022-10-22T15:37:56.279Z,56.54
2022-10-22T15:40:23.583Z,56.97
2022-10-22T15:42:50.862Z,57.10
2022-10-22T15:45:21.228Z,58.65
2022-10-22T15:47:48.991Z,58.93
2022-10-22T15:50:16.924Z,59.94
2022-10-22T15:52:44.526Z,60.05
2022-10-22T15:57:44.547Z,59.98
2022-10-22T16:00:13.744Z,60.39
2022-10-22T16:02:42.605Z,61.14
2022-10-22T16:05:10.057Z,60.96
2022-10-22T16:07:37.404Z,61.41
2022-10-22T16:10:07.554Z,61.79
2022-10-22T16:12:35.975Z,62.00
2022-10-22T16:15:03.623Z,61.96
2022-10-22T16:17:31.173Z,63.33
2022-10-22T16:19:58.500Z,62.49
2022-10-22T16:22:25.802Z,62.87
2022-10-22T16:24:53.366Z,62.37
2022-10-22T16:27:20.901Z,63.78
2022-10-22T16:29:48.233Z,63.34
2022-10-22T16:32:16.753Z,63.52
2022-10-22T16:34:44.059Z,63.54
2022-10-22T16:37:11.380Z,64.06
2022-10-22T16:39:38.990Z,63.55
2022-10-22T16:42:06.462Z,63.23
2022-10-22T16:44:34.037Z,63.16
2022-10-22T16:47:01.628Z,63.36
2022-10-22T16:49:29.001Z,63.83
2022-10-22T16:51:56.353Z,63.63
2022-10-22T16:54:23.964Z,63.61
2022-10-22T16:56:51.281Z,63.83
2022-10-22T16:59:18.849Z,63.70
2022-10-22T17:01:46.415Z,63.74
2022-10-22T17:04:13.719Z,63.42
2022-10-22T17:06:41.068Z,63.74
2022-10-22T17:09:08.771Z,64.06
2022-10-22T17:11:39.158Z,63.69
2022-10-22T17:14:09.090Z,63.82
2022-10-22T17:16:36.575Z,63.68
2022-10-22T17:19:04.350Z,63.90
2022-10-22T17:21:31.965Z,63.92
2022-10-22T17:23:59.296Z,64.04
2022-10-22T17:26:27.939Z,63.79
2022-10-22T17:28:55.565Z,63.52
2022-10-22T17:31:28.099Z,63.84
2022-10-22T17:33:56.382Z,63.75
2022-10-22T17:36:24.696Z,64.28
2022-10-22T17:38:57.460Z,64.22
2022-10-22T17:41:27.888Z,64.52
2022-10-22T17:43:56.311Z,64.01
2022-10-22T17:46:25.261Z,63.91
2022-10-22T17:48:54.922Z,64.80
2022-10-22T17:51:23.480Z,64.12
2022-10-22T17:53:50.835Z,64.30
2022-10-22T17:56:23.157Z,64.06
2022-10-22T17:58:51.036Z,63.90
2022-10-22T18:01:23.003Z,64.00
2022-10-22T18:03:52.193Z,64.04
2022-10-22T18:06:19.703Z,63.81
2022-10-22T18:08:47.173Z,64.34
2022-10-22T18:11:18.103Z,64.30
2022-10-22T18:13:49.627Z,64.54
2022-10-22T18:16:17.796Z,64.49
2022-10-22T18:18:47.194Z,64.30
2022-10-22T18:21:16.015Z,63.95
2022-10-22T18:23:43.635Z,64.58
2022-10-22T18:26:10.923Z,64.74
2022-10-22T18:28:38.302Z,64.35
2022-10-22T18:31:10.820Z,64.27
2022-10-22T18:33:38.158Z,64.72
2022-10-22T18:36:07.907Z,64.55
2022-10-22T18:38:35.425Z,64.30
2022-10-22T18:41:02.735Z,64.12
2022-10-22T18:43:30.324Z,64.87
2022-10-22T18:45:57.646Z,64.72
2022-10-22T18:48:24.992Z,64.50
2022-10-22T18:51:00.923Z,64.88
2022-10-22T18:53:29.673Z,65.21
2022-10-22T18:55:57.336Z,65.20
2022-10-22T18:58:24.656Z,64.74
2022-10-22T19:00:52.028Z,64.92
2022-10-22T19:03:19.668Z,64.80
2022-10-22T19:05:49.829Z,64.91
2022-10-22T19:08:18.142Z,64.57
2022-10-22T19:10:46.804Z,64.32
2022-10-22T19:13:16.072Z,64.43
2022-10-22T19:15:43.495Z,64.78
2022-10-22T19:18:11.326Z,64.40
2022-10-22T19:20:38.946Z,64.59
2022-10-22T19:23:07.400Z,64.20
2022-10-22T19:25:34.975Z,64.23
2022-10-22T19:28:02.311Z,64.60
2022-10-22T19:30:29.854Z,64.68
2022-10-22T19:32:57.485Z,64.87
2022-10-22T19:35:24.776Z,65.65
2022-10-22T19:37:52.215Z,65.25
2022-10-22T19:40:19.995Z,64.70
2022-10-22T19:42:50.348Z,65.52
2022-10-22T19:45:18.212Z,65.16
2022-10-22T19:47:45.818Z,64.55
2022-10-22T19:50:13.147Z,64.92
2022-10-22T19:52:40.779Z,64.03
2022-10-22T19:55:10.034Z,64.60
2022-10-22T19:57:38.811Z,64.54
2022-10-22T20:00:06.817Z,64.68
2022-10-22T20:02:38.166Z,64.26
2022-10-22T20:05:06.251Z,64.48
2022-10-22T20:07:33.746Z,64.25
2022-10-22T20:10:01.057Z,64.44
2022-10-22T20:12:28.607Z,64.13
2022-10-22T20:14:55.982Z,63.91
2022-10-22T20:17:23.305Z,64.07
2022-10-22T20:19:50.924Z,64.10
2022-10-22T20:22:18.930Z,64.29
2022-10-22T20:24:46.352Z,64.21
2022-10-22T20:27:13.994Z,63.77
2022-10-22T20:29:41.364Z,64.07
2022-10-22T20:32:08.954Z,63.61
2022-10-22T20:34:37.147Z,63.54
2022-10-22T20:37:04.438Z,63.47
2022-10-22T20:39:32.054Z,63.56
2022-10-22T20:41:59.724Z,63.70
2022-10-22T20:44:27.059Z,63.51
2022-10-22T20:46:54.723Z,63.82
2022-10-22T20:49:22.329Z,64.17
2022-10-22T20:51:49.644Z,64.23
2022-10-22T20:54:17.568Z,64.27
2022-10-22T20:56:45.349Z,64.52
2022-10-22T20:59:12.742Z,64.65
2022-10-22T21:01:51.244Z,64.78
2022-10-22T21:04:20.260Z,65.41
2022-10-22T21:06:49.820Z,64.79
2022-10-22T21:09:17.234Z,64.81
2022-10-22T21:11:45.195Z,64.59
2022-10-22T21:14:14.529Z,65.17
2022-10-22T21:16:44.248Z,65.30
2022-10-22T21:19:12.037Z,65.15
2022-10-22T21:21:39.355Z,65.28
2022-10-22T21:24:07.078Z,65.03
2022-10-22T21:26:38.824Z,65.08
2022-10-22T21:29:06.535Z,64.83
2022-10-22T21:31:34.123Z,65.14
2022-10-22T21:34:01.877Z,65.17
2022-10-22T21:36:29.163Z,65.68
2022-10-22T21:38:56.707Z,65.66
2022-10-22T21:41:24.429Z,65.71
2022-10-22T21:43:51.790Z,66.12
2022-10-22T21:46:21.903Z,65.37
2022-10-22T21:48:57.552Z,65.86
2022-10-22T21:51:25.649Z,66.08
2022-10-22T21:53:53.632Z,65.86
2022-10-22T21:56:23.667Z,65.11
2022-10-22T21:58:51.000Z,65.59
2022-10-22T22:01:18.768Z,66.21
2022-10-22T22:03:50.716Z,66.44
2022-10-22T22:06:21.421Z,67.86
2022-10-22T22:08:51.763Z,67.87
2022-10-22T22:11:25.015Z,68.82
2022-10-22T22:13:55.727Z,69.46
2022-10-22T22:16:28.802Z,68.64
2022-10-22T22:18:59.283Z,69.82
2022-10-22T22:21:26.677Z,69.36
2022-10-22T22:23:54.255Z,69.99
2022-10-22T22:26:28.626Z,70.41
2022-10-22T22:28:58.483Z,71.42
2022-10-22T22:31:31.013Z,71.61
2022-10-22T22:34:07.145Z,71.40
2022-10-22T22:36:40.033Z,71.23
2022-10-22T22:39:10.377Z,71.15
2022-10-22T22:41:37.978Z,72.44
2022-10-22T22:44:05.644Z,71.83
2022-10-22T22:46:33.035Z,72.18
2022-10-22T22:49:00.610Z,71.79
2022-10-22T22:51:27.940Z,73.38
2022-10-22T22:53:57.993Z,72.79
2022-10-22T22:56:27.973Z,72.68
2022-10-22T22:58:55.735Z,72.95
2022-10-22T23:01:25.948Z,72.82
2022-10-22T23:03:59.176Z,72.25
2022-10-22T23:06:29.431Z,73.09
2022-10-22T23:08:57.791Z,72.50
2022-10-22T23:11:26.371Z,73.20
2022-10-22T23:13:58.845Z,73.44
2022-10-22T23:16:29.021Z,74.01
2022-10-22T23:18:56.915Z,72.47
2022-10-22T23:21:26.980Z,73.41
2022-10-22T23:23:56.757Z,72.82
2022-10-22T23:26:45.243Z,72.07
2022-10-22T23:29:19.467Z,71.63
2022-10-22T23:31:47.791Z,72.27
2022-10-22T23:36:51.611Z,71.62
2022-10-22T23:39:22.187Z,70.89
2022-10-22T23:41:49.869Z,70.51
2022-10-22T23:44:17.229Z,70.10
2022-10-22T23:46:44.867Z,69.39
2022-10-22T23:49:12.247Z,68.98
2022-10-22T23:51:39.928Z,68.82
2022-10-22T23:54:13.054Z,69.08
2022-10-22T23:56:40.745Z,68.46
2022-10-22T23:59:08.839Z,68.41
